createdAt,value
2019-05-03T00:00:54.723Z,0.00
2019-05-03T00:01:54.462Z,0.00
2019-05-03T00:02:54.580Z,0.00
2019-05-03T00:03:54.349Z,0.00
2019-05-03T00:04:54.877Z,0.00
2019-05-03T00:05:55.734Z,0.00
2019-05-03T00:06:54.263Z,0.00
2019-05-03T00:07:54.270Z,0.00
2019-05-03T00:08:54.367Z,0.00
2019-05-03T00:09:54.448Z,0.00
2019-05-03T00:10:54.673Z,0.00
2019-05-03T00:11:54.572Z,0.00
2019-05-03T00:12:54.505Z,0.00
2019-05-03T00:13:54.327Z,0.00
2019-05-03T00:14:54.410Z,0.00
2019-05-03T00:15:55.272Z,0.00
2019-05-03T00:16:54.162Z,0.00
2019-05-03T00:17:54.089Z,0.00
2019-05-03T00:18:54.219Z,0.00
2019-05-03T00:19:54.285Z,0.00
2019-05-03T00:20:54.129Z,0.00
2019-05-03T00:21:54.105Z,0.00
2019-05-03T00:22:54.052Z,0.00
2019-05-03T00:23:54.649Z,0.00
2019-05-03T00:25:05.317Z,0.00
2019-05-03T00:25:56.039Z,0.00
2019-05-03T00:26:54.250Z,0.00
2019-05-03T00:27:54.266Z,0.00
2019-05-03T00:28:53.985Z,0.00
2019-05-03T00:29:54.213Z,0.00
2019-05-03T00:30:54.226Z,0.00
2019-05-03T00:31:54.489Z,0.00
2019-05-03T00:32:54.191Z,0.00
2019-05-03T00:33:54.026Z,0.00
2019-05-03T00:34:53.942Z,0.00
2019-05-03T00:35:54.035Z,0.00
2019-05-03T00:36:53.989Z,0.00
2019-05-03T00:37:53.958Z,0.00
2019-05-03T00:38:54.013Z,0.00
2019-05-03T00:39:53.967Z,0.00
2019-05-03T00:40:53.957Z,0.00
2019-05-03T00:41:53.873Z,0.00
2019-05-03T00:42:53.905Z,0.00
2019-05-03T00:43:53.931Z,0.00
2019-05-03T00:44:53.823Z,0.00
2019-05-03T00:45:53.864Z,0.00
2019-05-03T00:46:53.886Z,0.00
2019-05-03T00:47:53.821Z,0.00
2019-05-03T00:48:53.813Z,0.00
2019-05-03T00:49:53.810Z,0.00
2019-05-03T00:50:53.877Z,0.00
2019-05-03T00:51:53.729Z,0.00
2019-05-03T00:52:53.909Z,0.00
2019-05-03T00:53:53.776Z,0.00
2019-05-03T00:54:53.748Z,0.00
2019-05-03T00:55:53.859Z,0.00
2019-05-03T00:56:53.817Z,0.00
2019-05-03T00:57:53.724Z,0.00
2019-05-03T00:58:53.764Z,0.00
2019-05-03T00:59:54.884Z,0.00
2019-05-03T01:00:54.406Z,0.00
2019-05-03T01:01:53.659Z,0.00
2019-05-03T01:02:53.961Z,0.00
2019-05-03T01:03:53.841Z,0.00
2019-05-03T01:04:53.659Z,0.00
2019-05-03T01:05:54.573Z,0.00
2019-05-03T01:06:53.758Z,0.00
2019-05-03T01:07:53.673Z,0.00
2019-05-03T01:08:53.697Z,0.00
2019-05-03T01:09:53.737Z,0.00
2019-05-03T01:10:53.673Z,0.00
2019-05-03T01:11:53.539Z,0.00
2019-05-03T01:12:53.903Z,0.00
2019-05-03T01:13:53.666Z,0.00
2019-05-03T01:14:55.841Z,0.00
2019-05-03T01:15:53.610Z,0.00
2019-05-03T01:16:53.797Z,0.00
2019-05-03T01:17:53.779Z,0.00
2019-05-03T01:18:53.628Z,0.00
2019-05-03T01:19:53.578Z,0.00
2019-05-03T01:20:53.457Z,0.00
2019-05-03T01:21:53.647Z,0.00
2019-05-03T01:22:55.257Z,0.00
2019-05-03T01:23:53.728Z,0.00
2019-05-03T01:24:53.663Z,0.00
2019-05-03T01:25:53.529Z,0.00
2019-05-03T01:26:54.241Z,0.00
2019-05-03T01:27:53.493Z,0.00
2019-05-03T01:28:56.149Z,0.00
2019-05-03T01:29:53.941Z,0.00
2019-05-03T01:30:53.517Z,0.00
2019-05-03T01:31:54.351Z,0.00
2019-05-03T01:32:53.489Z,0.00
2019-05-03T01:33:53.315Z,0.00
2019-05-03T01:34:53.742Z,0.00
2019-05-03T01:35:54.487Z,0.00
2019-05-03T01:36:55.341Z,0.00
2019-05-03T01:37:53.326Z,0.00
2019-05-03T01:38:53.728Z,0.00
2019-05-03T01:39:55.405Z,0.00
2019-05-03T01:40:53.555Z,0.00
2019-05-03T01:41:53.905Z,0.00
2019-05-03T01:42:54.165Z,0.00
2019-05-03T01:43:53.721Z,0.00
2019-05-03T01:44:53.205Z,0.00
2019-05-03T01:45:53.160Z,0.00
2019-05-03T01:46:53.220Z,0.00
2019-05-03T01:47:53.357Z,0.00
2019-05-03T01:48:54.481Z,0.00
2019-05-03T01:49:53.460Z,0.00
2019-05-03T01:50:53.279Z,0.00
2019-05-03T01:51:53.447Z,0.00
2019-05-03T01:52:53.307Z,0.00
2019-05-03T01:53:53.450Z,0.00
2019-05-03T01:54:53.524Z,0.00
2019-05-03T01:55:53.231Z,0.00
2019-05-03T01:56:58.861Z,0.00
2019-05-03T01:57:53.147Z,0.00
2019-05-03T01:58:53.252Z,0.00
2019-05-03T01:59:53.208Z,0.00
2019-05-03T02:00:53.493Z,0.00
2019-05-03T02:01:53.284Z,0.00
2019-05-03T02:02:53.025Z,0.00
2019-05-03T02:03:53.209Z,0.00
2019-05-03T02:04:53.385Z,0.00
2019-05-03T02:05:53.169Z,0.00
2019-05-03T02:06:59.083Z,0.00
2019-05-03T02:07:53.644Z,0.00
2019-05-03T02:08:53.411Z,0.00
2019-05-03T02:09:53.039Z,0.00
2019-05-03T02:10:52.905Z,0.00
2019-05-03T02:11:55.707Z,0.00
2019-05-03T02:12:54.361Z,0.00
2019-05-03T02:13:53.221Z,0.00
2019-05-03T02:14:53.097Z,0.00
2019-05-03T02:15:52.961Z,0.00
2019-05-03T02:16:53.115Z,0.00
2019-05-03T02:17:53.288Z,0.00
2019-05-03T02:18:53.107Z,0.00
2019-05-03T02:19:52.931Z,0.00
2019-05-03T02:20:53.149Z,0.00
2019-05-03T02:21:54.871Z,0.00
2019-05-03T02:22:52.918Z,0.00
2019-05-03T02:23:54.765Z,0.00
2019-05-03T02:24:53.171Z,0.00
2019-05-03T02:25:58.764Z,0.00
2019-05-03T02:27:05.868Z,0.00
2019-05-03T02:27:54.138Z,0.00
2019-05-03T02:28:52.862Z,0.00
2019-05-03T02:29:52.868Z,0.00
2019-05-03T02:30:53.553Z,0.00
2019-05-03T02:31:53.442Z,0.00
2019-05-03T02:32:53.441Z,0.00
2019-05-03T02:33:53.325Z,0.00
2019-05-03T02:35:02.540Z,0.00
2019-05-03T02:35:53.380Z,0.00
2019-05-03T02:36:54.443Z,0.00
2019-05-03T02:37:53.273Z,0.00
2019-05-03T02:38:53.503Z,0.00
2019-05-03T02:39:55.268Z,0.00
2019-05-03T02:40:53.339Z,0.00
2019-05-03T02:41:59.701Z,0.00
2019-05-03T02:42:55.281Z,0.00
2019-05-03T02:43:52.624Z,0.00
2019-05-03T02:44:55.148Z,0.00
2019-05-03T02:45:52.778Z,0.00
2019-05-03T02:46:56.042Z,0.00
2019-05-03T02:47:55.771Z,0.00
2019-05-03T02:48:54.971Z,0.00
2019-05-03T02:49:56.011Z,0.00
2019-05-03T02:50:52.541Z,0.00
2019-05-03T02:51:55.598Z,0.00
2019-05-03T02:52:55.068Z,0.00
2019-05-03T02:53:56.772Z,0.00
2019-05-03T02:54:55.502Z,0.00
2019-05-03T02:55:55.931Z,0.00
2019-05-03T02:56:52.648Z,0.00
2019-05-03T02:57:52.811Z,0.00
2019-05-03T02:58:55.803Z,0.00
2019-05-03T02:59:55.538Z,0.00
2019-05-03T03:00:55.857Z,0.00
2019-05-03T03:01:55.750Z,0.00
2019-05-03T03:02:52.787Z,0.00
2019-05-03T03:03:52.558Z,0.00
2019-05-03T03:04:52.658Z,0.00
2019-05-03T03:05:52.537Z,0.00
2019-05-03T03:06:55.454Z,0.00
2019-05-03T03:07:55.696Z,0.00
2019-05-03T03:08:52.523Z,0.00
2019-05-03T03:09:52.295Z,0.00
2019-05-03T03:10:55.578Z,0.00
2019-05-03T03:11:52.222Z,0.00
2019-05-03T03:12:55.150Z,0.00
2019-05-03T03:13:56.287Z,0.00
2019-05-03T03:14:52.777Z,0.00
2019-05-03T03:15:55.374Z,0.00
2019-05-03T03:16:52.189Z,0.00
2019-05-03T03:17:55.805Z,0.00
2019-05-03T03:18:55.689Z,0.00
2019-05-03T03:19:55.114Z,0.00
2019-05-03T03:20:55.358Z,0.00
2019-05-03T03:21:52.313Z,0.00
2019-05-03T03:22:58.179Z,0.00
2019-05-03T03:23:52.615Z,0.00
2019-05-03T03:24:52.496Z,4.00
2019-05-03T03:25:52.228Z,0.00
2019-05-03T03:26:52.363Z,4.00
2019-05-03T03:27:52.130Z,4.00
2019-05-03T03:28:52.233Z,4.00
2019-05-03T03:29:55.299Z,4.00
2019-05-03T03:30:57.181Z,8.00
2019-05-03T03:31:57.345Z,4.00
2019-05-03T03:32:57.693Z,8.00
2019-05-03T03:33:52.024Z,8.00
2019-05-03T03:35:00.614Z,4.00
2019-05-03T03:35:57.961Z,8.00
2019-05-03T03:37:00.694Z,8.00
2019-05-03T03:37:52.126Z,8.00
2019-05-03T03:38:55.285Z,12.00
2019-05-03T03:39:52.151Z,8.00
2019-05-03T03:40:55.521Z,12.00
2019-05-03T03:41:55.647Z,12.00
2019-05-03T03:42:55.674Z,16.00
2019-05-03T03:43:52.289Z,24.00
2019-05-03T03:44:52.477Z,28.00
2019-05-03T03:45:52.128Z,32.00
2019-05-03T03:46:52.279Z,40.00
2019-05-03T03:47:56.364Z,48.00
2019-05-03T03:48:55.786Z,56.00
2019-05-03T03:49:55.230Z,64.00
2019-05-03T03:50:51.892Z,72.00
2019-05-03T03:51:51.973Z,80.00
2019-05-03T03:52:56.802Z,92.00
2019-05-03T03:53:52.018Z,104.00
2019-05-03T03:54:51.995Z,120.00
2019-05-03T03:55:52.149Z,136.00
2019-05-03T03:56:59.351Z,144.00
2019-05-03T03:57:55.717Z,164.00
2019-05-03T03:58:51.844Z,180.00
2019-05-03T03:59:52.101Z,192.00
2019-05-03T04:00:52.048Z,200.00
2019-05-03T04:01:52.205Z,216.00
2019-05-03T04:02:55.269Z,232.00
2019-05-03T04:03:53.019Z,256.00
2019-05-03T04:04:56.656Z,280.00
2019-05-03T04:05:51.877Z,296.00
2019-05-03T04:06:51.976Z,308.00
2019-05-03T04:07:56.045Z,324.00
2019-05-03T04:08:55.988Z,344.00
2019-05-03T04:09:56.091Z,360.00
2019-05-03T04:10:55.710Z,348.00
2019-05-03T04:11:51.970Z,328.00
2019-05-03T04:12:51.831Z,368.00
2019-05-03T04:13:51.598Z,412.00
2019-05-03T04:14:52.327Z,444.00
2019-05-03T04:15:51.819Z,468.00
2019-05-03T04:16:51.484Z,492.00
2019-05-03T04:17:51.590Z,516.00
2019-05-03T04:18:51.616Z,536.00
2019-05-03T04:19:51.580Z,552.00
2019-05-03T04:20:51.628Z,576.00
2019-05-03T04:21:51.483Z,616.00
2019-05-03T04:22:51.450Z,660.00
2019-05-03T04:23:51.417Z,696.00
2019-05-03T04:24:55.093Z,736.00
2019-05-03T04:25:51.881Z,780.00
2019-05-03T04:26:51.454Z,808.00
2019-05-03T04:27:51.706Z,836.00
2019-05-03T04:28:51.802Z,892.00
2019-05-03T04:29:51.647Z,968.00
2019-05-03T04:30:51.628Z,1052.00
2019-05-03T04:31:51.592Z,996.00
2019-05-03T04:32:52.005Z,880.00
2019-05-03T04:33:51.564Z,860.00
2019-05-03T04:34:51.529Z,904.00
2019-05-03T04:35:51.618Z,936.00
2019-05-03T04:36:51.583Z,976.00
2019-05-03T04:37:51.462Z,1004.00
2019-05-03T04:38:51.619Z,1036.00
2019-05-03T04:39:52.215Z,1192.00
2019-05-03T04:40:51.390Z,1388.00
2019-05-03T04:41:51.817Z,1548.00
2019-05-03T04:42:51.567Z,1664.00
2019-05-03T04:43:51.472Z,1868.00
2019-05-03T04:44:51.474Z,1976.00
2019-05-03T04:45:51.594Z,2064.00
2019-05-03T04:46:54.849Z,2120.00
2019-05-03T04:47:51.790Z,2204.00
2019-05-03T04:49:00.999Z,2308.00
2019-05-03T04:49:51.630Z,2436.00
2019-05-03T04:50:52.151Z,2540.00
2019-05-03T04:51:51.122Z,2616.00
2019-05-03T04:52:51.288Z,2604.00
2019-05-03T04:53:55.612Z,2624.00
2019-05-03T04:54:51.122Z,2656.00
2019-05-03T04:55:51.205Z,2704.00
2019-05-03T04:56:51.444Z,2756.00
2019-05-03T04:57:51.143Z,2812.00
2019-05-03T04:58:51.391Z,2848.00
2019-05-03T04:59:51.308Z,3004.00
2019-05-03T05:00:51.438Z,3256.00
2019-05-03T05:01:51.190Z,3368.00
2019-05-03T05:02:51.218Z,3480.00
2019-05-03T05:03:52.870Z,3608.00
2019-05-03T05:04:51.030Z,3644.00
2019-05-03T05:05:51.112Z,3316.00
2019-05-03T05:06:51.301Z,3100.00
2019-05-03T05:07:51.221Z,3604.00
2019-05-03T05:08:51.019Z,3744.00
2019-05-03T05:09:51.995Z,3856.00
2019-05-03T05:10:51.169Z,4048.00
2019-05-03T05:11:51.516Z,4100.00
2019-05-03T05:12:51.009Z,4188.00
2019-05-03T05:13:51.828Z,4308.00
2019-05-03T05:14:50.980Z,4528.00
2019-05-03T05:15:51.053Z,4832.00
2019-05-03T05:16:55.704Z,5188.00
2019-05-03T05:17:51.334Z,5388.00
2019-05-03T05:18:56.029Z,5436.00
2019-05-03T05:19:50.900Z,5492.00
2019-05-03T05:20:51.769Z,5524.00
2019-05-03T05:21:50.843Z,5732.00
2019-05-03T05:22:50.789Z,6112.00
2019-05-03T05:23:50.921Z,6376.00
2019-05-03T05:24:50.761Z,6488.00
2019-05-03T05:25:50.941Z,6752.00
2019-05-03T05:26:51.437Z,7156.00
2019-05-03T05:27:54.643Z,7208.00
2019-05-03T05:28:51.080Z,7188.00
2019-05-03T05:29:51.308Z,7332.00
2019-05-03T05:54:05.123Z,12776.00
2019-05-03T05:54:55.308Z,14896.00
2019-05-03T05:55:55.064Z,14104.00
2019-05-03T05:56:54.708Z,14732.00
2019-05-03T05:58:03.054Z,16864.00
2019-05-03T05:58:55.403Z,16960.00
2019-05-03T05:59:54.492Z,17152.00
2019-05-03T06:00:55.219Z,14852.00
2019-05-03T06:01:55.549Z,13928.00
2019-05-03T06:02:55.122Z,14112.00
2019-05-03T06:03:55.068Z,14876.00
2019-05-03T06:04:54.439Z,20544.00
2019-05-03T06:05:54.923Z,23648.00
2019-05-03T06:06:55.362Z,18688.00
2019-05-03T06:07:54.576Z,15104.00
2019-05-03T06:08:54.764Z,18176.00
2019-05-03T06:09:54.976Z,17376.00
2019-05-03T06:10:55.354Z,18016.00
2019-05-03T06:11:55.379Z,30048.00
2019-05-03T06:12:54.549Z,22176.00
2019-05-03T06:13:54.604Z,22080.00
2019-05-03T06:14:54.435Z,23968.00
2019-05-03T06:15:54.827Z,16736.00
2019-05-03T06:16:55.275Z,19648.00
2019-05-03T06:17:55.358Z,26656.00
2019-05-03T06:18:54.475Z,36992.00
2019-05-03T06:19:55.020Z,26496.00
2019-05-03T06:20:54.378Z,22496.00
2019-05-03T06:21:54.863Z,21088.00
2019-05-03T06:22:54.944Z,21792.00
2019-05-03T06:23:53.506Z,23808.00
2019-05-03T06:24:54.388Z,29248.00
2019-05-03T06:25:54.547Z,20800.00
2019-05-03T06:26:54.654Z,16576.00
2019-05-03T06:27:54.924Z,16128.00
2019-05-03T06:28:54.520Z,16896.00
2019-05-03T06:29:54.594Z,16928.00
2019-05-03T06:30:54.499Z,17216.00
2019-05-03T06:31:55.068Z,22848.00
2019-05-03T06:32:55.101Z,31616.00
2019-05-03T06:33:55.229Z,16280.00
2019-05-03T06:34:54.596Z,15412.00
2019-05-03T06:35:54.704Z,15668.00
2019-05-03T06:36:55.235Z,14704.00
2019-05-03T06:37:54.585Z,13620.00
2019-05-03T06:38:54.771Z,13148.00
2019-05-03T06:39:54.418Z,14100.00
2019-05-03T06:40:54.410Z,15120.00
2019-05-03T06:41:55.049Z,16728.00
2019-05-03T06:42:57.255Z,27872.00
2019-05-03T06:43:55.206Z,15088.00
2019-05-03T06:44:54.648Z,14052.00
2019-05-03T06:45:54.813Z,12968.00
2019-05-03T06:46:55.109Z,12312.00
2019-05-03T06:47:54.976Z,12332.00
2019-05-03T06:48:54.302Z,12724.00
2019-05-03T06:49:55.125Z,13356.00
2019-05-03T06:50:55.667Z,16400.00
2019-05-03T06:51:54.594Z,16192.00
2019-05-03T06:52:54.806Z,15984.00
2019-05-03T06:53:54.779Z,43040.00
2019-05-03T06:54:55.229Z,42016.00
2019-05-03T06:55:55.294Z,25504.00
2019-05-03T06:56:53.151Z,44448.00
2019-05-03T06:57:54.608Z,43936.00
2019-05-03T06:58:54.735Z,26048.00
2019-05-03T06:59:54.934Z,15828.00
2019-05-03T07:00:55.234Z,14236.00
2019-05-03T07:01:55.203Z,15788.00
2019-05-03T07:02:54.623Z,15564.00
2019-05-03T07:03:54.787Z,14680.00
2019-05-03T07:04:53.041Z,12708.00
2019-05-03T07:05:54.864Z,12576.00
2019-05-03T07:06:55.059Z,13980.00
2019-05-03T07:07:54.741Z,15796.00
2019-05-03T07:08:54.823Z,16696.00
2019-05-03T07:09:54.668Z,17108.00
2019-05-03T07:10:54.943Z,17696.00
2019-05-03T07:11:52.994Z,19808.00
2019-05-03T07:12:54.688Z,49824.00
2019-05-03T07:13:54.890Z,29056.00
2019-05-03T07:14:54.576Z,50848.00
2019-05-03T07:15:52.934Z,53984.00
2019-05-03T07:16:52.990Z,46752.00
2019-05-03T07:17:52.893Z,23104.00
2019-05-03T07:18:56.439Z,23136.00
2019-05-03T07:19:54.644Z,23552.00
2019-05-03T07:20:54.960Z,29984.00
2019-05-03T07:21:54.634Z,28480.00
2019-05-03T07:22:52.839Z,21216.00
2019-05-03T07:23:55.010Z,19008.00
2019-05-03T07:24:54.515Z,16688.00
2019-05-03T07:25:52.825Z,14536.00
2019-05-03T07:26:59.028Z,13900.00
2019-05-03T07:27:52.876Z,14428.00
2019-05-03T07:28:54.547Z,15000.00
2019-05-03T07:29:52.763Z,15944.00
2019-05-03T07:30:54.380Z,18880.00
2019-05-03T07:31:54.767Z,53984.00
2019-05-03T07:32:54.550Z,58880.00
2019-05-03T07:33:54.911Z,27296.00
2019-05-03T07:34:52.707Z,24608.00
2019-05-03T07:35:54.679Z,58816.00
2019-05-03T07:36:52.715Z,60704.00
2019-05-03T07:37:52.683Z,57472.00
2019-05-03T07:38:52.703Z,57216.00
2019-05-03T07:39:52.699Z,54528.00
2019-05-03T07:40:54.815Z,49984.00
2019-05-03T07:41:52.631Z,41088.00
2019-05-03T07:42:52.627Z,44896.00
2019-05-03T07:43:52.637Z,49344.00
2019-05-03T07:44:52.598Z,52864.00
2019-05-03T07:45:52.607Z,51712.00
2019-05-03T07:46:52.578Z,56672.00
2019-05-03T07:47:52.567Z,55168.00
2019-05-03T07:48:54.660Z,29248.00
2019-05-03T07:49:54.577Z,53728.00
2019-05-03T07:50:54.539Z,18880.00
2019-05-03T07:51:52.563Z,19232.00
2019-05-03T07:52:52.507Z,20288.00
2019-05-03T07:53:52.526Z,29248.00
2019-05-03T07:54:52.491Z,24480.00
2019-05-03T07:55:54.659Z,57632.00
2019-05-03T07:56:52.466Z,51168.00
2019-05-03T07:57:52.478Z,27072.00
2019-05-03T07:58:59.962Z,23552.00
2019-05-03T07:59:55.526Z,19680.00
2019-05-03T08:01:03.552Z,20288.00
2019-05-03T08:01:54.636Z,69312.00
2019-05-03T08:02:52.529Z,67616.00
2019-05-03T08:03:52.428Z,70816.00
2019-05-03T08:04:52.447Z,76256.00
2019-05-03T08:05:52.409Z,74400.00
2019-05-03T08:06:54.797Z,73216.00
2019-05-03T08:07:52.351Z,72704.00
2019-05-03T08:08:54.417Z,76032.00
2019-05-03T08:09:52.396Z,76832.00
2019-05-03T08:10:52.312Z,74208.00
2019-05-03T08:11:52.315Z,76608.00
2019-05-03T08:12:54.344Z,68608.00
2019-05-03T08:13:52.325Z,72224.00
2019-05-03T08:14:52.267Z,75008.00
2019-05-03T08:15:52.273Z,78912.00
2019-05-03T08:16:54.611Z,79936.00
2019-05-03T08:17:52.259Z,81600.00
2019-05-03T08:18:53.082Z,79776.00
2019-05-03T08:19:52.266Z,82080.00
2019-05-03T08:20:52.203Z,82208.00
2019-05-03T08:21:52.247Z,83968.00
2019-05-03T08:22:52.205Z,81568.00
2019-05-03T08:23:52.361Z,83104.00
2019-05-03T08:24:52.173Z,79104.00
2019-05-03T08:25:52.295Z,23072.00
2019-05-03T08:26:52.151Z,21376.00
2019-05-03T08:27:52.127Z,19712.00
2019-05-03T08:28:54.360Z,18912.00
2019-05-03T08:29:52.262Z,19392.00
2019-05-03T08:30:52.094Z,21312.00
2019-05-03T08:31:52.082Z,20992.00
2019-05-03T08:32:52.155Z,23744.00
2019-05-03T08:33:52.119Z,23520.00
2019-05-03T08:34:52.053Z,59136.00
2019-05-03T08:35:52.085Z,23776.00
2019-05-03T08:36:52.048Z,24704.00
2019-05-03T08:37:52.020Z,28288.00
2019-05-03T08:38:52.702Z,65024.00
2019-05-03T08:39:52.039Z,72864.00
2019-05-03T08:40:51.992Z,41568.00
2019-05-03T08:41:51.983Z,60288.00
2019-05-03T08:42:51.995Z,35584.00
2019-05-03T08:43:51.959Z,29568.00
2019-05-03T08:44:51.975Z,27360.00
2019-05-03T08:45:52.069Z,26496.00
2019-05-03T08:46:51.952Z,23904.00
2019-05-03T08:47:51.913Z,21792.00
2019-05-03T08:48:51.908Z,21312.00
2019-05-03T08:49:51.923Z,19296.00
2019-05-03T08:50:51.928Z,18464.00
2019-05-03T08:51:51.934Z,20512.00
2019-05-03T08:52:51.861Z,22912.00
2019-05-03T08:53:51.848Z,24832.00
2019-05-03T08:54:51.877Z,27616.00
2019-05-03T08:55:51.823Z,30912.00
2019-05-03T08:56:51.813Z,62560.00
2019-05-03T08:57:51.850Z,29280.00
2019-05-03T08:58:51.799Z,29120.00
2019-05-03T08:59:51.811Z,48480.00
2019-05-03T09:02:05.199Z,93440.00
2019-05-03T09:03:01.082Z,94080.00
2019-05-03T09:04:00.124Z,54560.00
2019-05-03T09:05:00.135Z,37248.00
2019-05-03T09:06:00.094Z,36544.00
2019-05-03T09:07:00.168Z,34656.00
2019-05-03T09:08:00.057Z,30368.00
2019-05-03T09:09:00.146Z,27552.00
2019-05-03T09:10:00.094Z,22080.00
2019-05-03T09:11:00.002Z,19776.00
2019-05-03T09:12:00.033Z,18592.00
2019-05-03T09:13:00.098Z,18336.00
2019-05-03T09:14:00.092Z,18848.00
2019-05-03T09:15:00.182Z,20032.00
2019-05-03T09:16:00.012Z,21664.00
2019-05-03T09:16:59.935Z,23552.00
2019-05-03T09:17:59.937Z,25920.00
2019-05-03T09:18:59.991Z,31168.00
2019-05-03T09:19:59.932Z,37952.00
2019-05-03T09:20:59.920Z,49600.00
2019-05-03T09:21:59.921Z,75872.00
2019-05-03T09:22:59.867Z,73600.00
2019-05-03T09:23:59.855Z,82592.00
2019-05-03T09:24:59.948Z,91648.00
2019-05-03T09:25:59.835Z,91936.00
2019-05-03T09:26:59.876Z,85152.00
2019-05-03T09:27:59.923Z,79712.00
2019-05-03T09:28:59.793Z,70688.00
2019-05-03T09:29:59.787Z,75072.00
2019-05-03T09:30:59.820Z,80160.00
2019-05-03T09:31:59.763Z,81216.00
2019-05-03T09:32:59.762Z,86208.00
2019-05-03T09:33:59.745Z,87840.00
2019-05-03T09:34:59.762Z,96096.00
2019-05-03T09:35:59.748Z,99488.00
2019-05-03T09:36:59.713Z,51904.00
2019-05-03T09:37:59.711Z,72896.00
2019-05-03T09:38:59.689Z,75872.00
2019-05-03T09:39:59.685Z,30880.00
2019-05-03T09:40:59.725Z,26496.00
2019-05-03T09:41:59.669Z,25664.00
2019-05-03T09:42:59.642Z,23392.00
2019-05-03T09:43:59.708Z,20896.00
2019-05-03T09:44:59.627Z,19968.00
2019-05-03T09:45:59.641Z,20224.00
2019-05-03T09:46:59.634Z,21568.00
2019-05-03T09:47:59.590Z,23936.00
2019-05-03T09:49:12.519Z,30176.00
2019-05-03T09:50:02.225Z,107776.00
2019-05-03T09:50:59.588Z,63168.00
2019-05-03T09:51:59.657Z,85920.00
2019-05-03T09:52:59.567Z,50816.00
2019-05-03T09:53:59.550Z,133056.00
2019-05-03T09:54:59.517Z,37600.00
2019-05-03T09:55:59.529Z,31808.00
2019-05-03T09:56:59.502Z,31936.00
2019-05-03T09:57:59.482Z,25536.00
2019-05-03T09:58:59.473Z,24384.00
2019-05-03T10:00:00.076Z,23712.00
2019-05-03T10:00:59.487Z,22848.00
2019-05-03T10:01:59.433Z,22848.00
2019-05-03T10:02:59.438Z,24064.00
2019-05-03T10:03:59.434Z,25056.00
2019-05-03T10:04:59.460Z,93184.00
2019-05-03T10:05:59.659Z,106848.00
2019-05-03T10:06:59.431Z,41568.00
2019-05-03T10:07:59.518Z,125824.00
2019-05-03T10:08:59.462Z,102112.00
2019-05-03T10:09:59.387Z,123456.00
2019-05-03T10:10:59.646Z,78112.00
2019-05-03T10:11:59.357Z,39008.00
2019-05-03T10:12:59.440Z,95808.00
2019-05-03T10:13:59.319Z,105216.00
2019-05-03T10:14:59.313Z,57504.00
2019-05-03T10:15:59.331Z,79872.00
2019-05-03T10:16:59.303Z,49344.00
2019-05-03T10:17:59.263Z,52736.00
2019-05-03T10:18:59.305Z,48576.00
2019-05-03T10:19:59.321Z,35872.00
2019-05-03T10:20:59.237Z,29600.00
2019-05-03T10:21:59.286Z,32000.00
2019-05-03T10:22:59.237Z,30336.00
2019-05-03T10:23:59.361Z,38400.00
2019-05-03T10:24:59.199Z,53216.00
2019-05-03T10:25:59.175Z,59968.00
2019-05-03T10:26:59.333Z,40192.00
2019-05-03T10:27:59.172Z,35840.00
2019-05-03T10:28:59.148Z,30848.00
2019-05-03T10:30:12.154Z,29920.00
2019-05-03T10:31:00.174Z,33248.00
2019-05-03T10:31:59.157Z,35552.00
2019-05-03T10:32:59.174Z,35776.00
2019-05-03T10:33:59.091Z,36928.00
2019-05-03T10:34:59.091Z,40032.00
2019-05-03T10:35:59.171Z,41856.00
2019-05-03T10:37:01.888Z,47424.00
2019-05-03T10:37:59.326Z,72960.00
2019-05-03T10:38:59.049Z,75584.00
2019-05-03T10:39:59.029Z,95840.00
2019-05-03T10:40:59.020Z,63328.00
2019-05-03T10:41:59.034Z,59904.00
2019-05-03T10:42:59.024Z,53984.00
2019-05-03T10:43:59.002Z,64288.00
2019-05-03T10:44:58.983Z,102624.00
2019-05-03T10:45:58.969Z,50432.00
2019-05-03T10:46:59.063Z,50944.00
2019-05-03T10:47:58.969Z,89088.00
2019-05-03T10:48:58.941Z,64768.00
2019-05-03T10:49:58.952Z,47008.00
2019-05-03T10:50:58.919Z,46880.00
2019-05-03T10:51:58.941Z,45120.00
2019-05-03T10:52:58.885Z,37760.00
2019-05-03T10:53:58.905Z,35104.00
2019-05-03T10:54:58.878Z,35904.00
2019-05-03T10:55:58.870Z,40064.00
2019-05-03T10:56:58.904Z,43136.00
2019-05-03T10:57:58.875Z,40384.00
2019-05-03T10:58:58.869Z,40032.00
2019-05-03T10:59:59.127Z,66592.00
2019-05-03T11:00:58.915Z,65184.00
2019-05-03T11:02:01.875Z,47712.00
2019-05-03T11:02:58.789Z,37856.00
2019-05-03T11:03:58.780Z,52896.00
2019-05-03T11:04:58.750Z,40896.00
2019-05-03T11:05:58.772Z,70976.00
2019-05-03T11:06:58.761Z,72128.00
2019-05-03T11:07:58.744Z,54208.00
2019-05-03T11:08:58.708Z,157120.00
2019-05-03T11:09:58.725Z,52224.00
2019-05-03T11:10:58.689Z,71072.00
2019-05-03T11:11:58.728Z,48832.00
2019-05-03T11:12:58.658Z,35328.00
2019-05-03T11:13:58.646Z,31168.00
2019-05-03T11:14:58.670Z,32384.00
2019-05-03T11:15:58.629Z,37088.00
2019-05-03T11:17:00.551Z,29824.00
2019-05-03T11:17:58.603Z,30080.00
2019-05-03T11:18:58.593Z,31136.00
2019-05-03T11:19:58.594Z,45152.00
2019-05-03T11:20:58.593Z,63584.00
2019-05-03T11:21:58.590Z,133248.00
2019-05-03T11:22:58.557Z,99616.00
2019-05-03T11:23:58.543Z,115456.00
2019-05-03T11:24:58.525Z,79456.00
2019-05-03T11:25:58.517Z,125536.00
2019-05-03T11:27:00.133Z,116032.00
2019-05-03T11:27:58.503Z,129568.00
2019-05-03T11:29:00.493Z,119872.00
2019-05-03T11:29:59.285Z,113984.00
2019-05-03T11:31:02.263Z,112704.00
2019-05-03T11:31:58.485Z,130656.00
2019-05-03T11:32:58.463Z,125440.00
2019-05-03T11:33:58.434Z,76416.00
2019-05-03T11:34:58.421Z,44896.00
2019-05-03T11:35:58.418Z,67552.00
2019-05-03T11:36:58.425Z,116864.00
2019-05-03T11:37:58.389Z,48928.00
2019-05-03T11:38:58.419Z,52608.00
2019-05-03T11:39:58.368Z,48224.00
2019-05-03T11:40:58.364Z,38688.00
2019-05-03T11:41:58.376Z,47296.00
2019-05-03T11:42:58.335Z,43904.00
2019-05-03T11:43:58.333Z,32768.00
2019-05-03T11:44:58.315Z,30112.00
2019-05-03T11:45:58.315Z,29792.00
2019-05-03T11:46:58.321Z,29056.00
2019-05-03T11:47:58.278Z,29280.00
2019-05-03T11:48:58.271Z,30976.00
2019-05-03T11:49:58.269Z,32640.00
2019-05-03T11:50:58.251Z,32448.00
2019-05-03T11:51:58.340Z,32704.00
2019-05-03T11:52:58.232Z,36928.00
2019-05-03T11:53:58.220Z,74656.00
2019-05-03T11:54:58.206Z,46496.00
2019-05-03T11:55:58.197Z,50528.00
2019-05-03T11:56:58.245Z,137824.00
2019-05-03T11:57:58.175Z,35392.00
2019-05-03T11:58:58.195Z,32704.00
2019-05-03T11:59:58.159Z,25792.00
2019-05-03T12:01:11.637Z,21728.00
2019-05-03T12:01:59.159Z,20288.00
2019-05-03T12:02:58.122Z,20960.00
2019-05-03T12:03:58.113Z,23360.00
2019-05-03T12:04:58.163Z,26208.00
2019-05-03T12:05:58.095Z,31520.00
2019-05-03T12:06:58.116Z,90048.00
2019-05-03T12:07:58.062Z,84512.00
2019-05-03T12:08:58.055Z,50144.00
2019-05-03T12:09:58.060Z,50592.00
2019-05-03T12:11:01.278Z,55584.00
2019-05-03T12:11:58.091Z,52960.00
2019-05-03T12:12:58.021Z,90432.00
2019-05-03T12:14:04.387Z,89472.00
2019-05-03T12:14:58.981Z,118944.00
2019-05-03T12:15:58.094Z,47296.00
2019-05-03T12:17:17.215Z,124480.00
2019-05-03T12:17:59.643Z,119520.00
2019-05-03T12:18:57.954Z,118656.00
2019-05-03T12:19:58.997Z,120704.00
2019-05-03T12:20:59.659Z,124320.00
2019-05-03T12:21:58.642Z,39328.00
2019-05-03T12:22:58.545Z,35840.00
2019-05-03T12:23:58.665Z,72352.00
2019-05-03T12:24:58.524Z,37056.00
2019-05-03T12:25:58.411Z,74400.00
2019-05-03T12:26:57.861Z,113984.00
2019-05-03T12:27:57.893Z,134048.00
2019-05-03T12:28:57.830Z,35712.00
2019-05-03T12:29:57.851Z,33440.00
2019-05-03T12:30:57.817Z,133728.00
2019-05-03T12:31:57.810Z,45728.00
2019-05-03T12:32:57.822Z,32896.00
2019-05-03T12:33:57.790Z,62624.00
2019-05-03T12:34:57.767Z,33152.00
2019-05-03T12:35:57.803Z,29664.00
2019-05-03T12:36:57.794Z,34688.00
2019-05-03T12:37:57.767Z,30016.00
2019-05-03T12:38:57.734Z,26560.00